Terminal Aerodrome Forecast
Issued by NWS

Current Version | Previous Version | Text Only | Print | Product List | Glossary On
Versions: 1 2 3 4 5 6 7 8 9 10 11 12 13 14 15 16 17 18 19 20 21 22 23
000
FTUS43 KJKL 291100 RRA
TAFSJS
TAF
KSJS 291145Z 2912/3012 16006KT P6SM OVC100 WS019/20040KT
     FM291500 19010KT P6SM VCSH BKN050
     FM291600 23010G20KT 5SM -SHRA BKN035 BKN050
     FM291700 25009G17KT P6SM VCSH BKN035
     FM292300 26010G17KT P6SM OVC010
     FM300600 29007KT 3SM -SN OVC008=

USA.gov is the U.S. government's official web portal to all federal, state and local government web resources and services.